sensor_id;sensor_type;location;lat;lon;timestamp;P1;durP1;ratioP1;P2;durP2;ratioP2
38499;SDS011;24269;51.894;4.622;2022-09-09T00:00:30;9.75;;;6.40;;
38499;SDS011;24269;51.894;4.622;2022-09-09T00:05:37;12.02;;;7.10;;
38499;SDS011;24269;51.894;4.622;2022-09-09T00:08:17;12.77;;;7.47;;
38499;SDS011;24269;51.894;4.622;2022-09-09T00:16:24;13.00;;;8.00;;
38499;SDS011;24269;51.894;4.622;2022-09-09T00:21:47;14.40;;;7.90;;
38499;SDS011;24269;51.894;4.622;2022-09-09T00:27:04;13.63;;;8.60;;
38499;SDS011;24269;51.894;4.622;2022-09-09T00:29:47;14.88;;;8.65;;
38499;SDS011;24269;51.894;4.622;2022-09-09T00:32:19;13.43;;;8.85;;
38499;SDS011;24269;51.894;4.622;2022-09-09T00:34:56;15.68;;;8.88;;
38499;SDS011;24269;51.894;4.622;2022-09-09T00:37:37;13.43;;;8.52;;
38499;SDS011;24269;51.894;4.622;2022-09-09T00:40:11;14.73;;;8.52;;
38499;SDS011;24269;51.894;4.622;2022-09-09T00:43:06;14.43;;;8.38;;
38499;SDS011;24269;51.894;4.622;2022-09-09T00:54:54;13.70;;;7.88;;
38499;SDS011;24269;51.894;4.622;2022-09-09T00:57:32;12.23;;;7.78;;
38499;SDS011;24269;51.894;4.622;2022-09-09T01:03:10;10.65;;;6.97;;
38499;SDS011;24269;51.894;4.622;2022-09-09T01:08:39;12.63;;;7.43;;
38499;SDS011;24269;51.894;4.622;2022-09-09T01:11:28;12.93;;;7.32;;
38499;SDS011;24269;51.894;4.622;2022-09-09T01:19:49;10.43;;;6.38;;
38499;SDS011;24269;51.894;4.622;2022-09-09T01:25:09;11.52;;;6.10;;
38499;SDS011;24269;51.894;4.622;2022-09-09T01:27:39;11.00;;;5.93;;
38499;SDS011;24269;51.894;4.622;2022-09-09T01:30:10;9.95;;;5.72;;
38499;SDS011;24269;51.894;4.622;2022-09-09T01:32:39;12.57;;;6.05;;
38499;SDS011;24269;51.894;4.622;2022-09-09T01:35:11;11.20;;;5.82;;
38499;SDS011;24269;51.894;4.622;2022-09-09T01:37:54;11.85;;;5.75;;
38499;SDS011;24269;51.894;4.622;2022-09-09T01:40:19;11.18;;;5.68;;
38499;SDS011;24269;51.894;4.622;2022-09-09T01:42:45;11.15;;;5.40;;
38499;SDS011;24269;51.894;4.622;2022-09-09T01:45:10;13.15;;;5.80;;
38499;SDS011;24269;51.894;4.622;2022-09-09T01:47:36;11.20;;;5.40;;
38499;SDS011;24269;51.894;4.622;2022-09-09T01:50:02;9.82;;;5.05;;
38499;SDS011;24269;51.894;4.622;2022-09-09T01:52:28;12.07;;;5.78;;
38499;SDS011;24269;51.894;4.622;2022-09-09T01:54:55;11.60;;;5.72;;
38499;SDS011;24269;51.894;4.622;2022-09-09T01:57:28;10.85;;;6.05;;
38499;SDS011;24269;51.894;4.622;2022-09-09T02:08:07;12.50;;;6.30;;
38499;SDS011;24269;51.894;4.622;2022-09-09T02:10:37;10.73;;;6.32;;
38499;SDS011;24269;51.894;4.622;2022-09-09T02:13:18;13.13;;;6.28;;
38499;SDS011;24269;51.894;4.622;2022-09-09T02:18:33;16.15;;;6.93;;
38499;SDS011;24269;51.894;4.622;2022-09-09T02:21:06;13.50;;;7.10;;
38499;SDS011;24269;51.894;4.622;2022-09-09T02:23:32;10.68;;;6.90;;
38499;SDS011;24269;51.894;4.622;2022-09-09T02:25:59;12.20;;;6.85;;
38499;SDS011;24269;51.894;4.622;2022-09-09T02:28:28;14.05;;;7.20;;
38499;SDS011;24269;51.894;4.622;2022-09-09T02:30:56;11.13;;;7.10;;
38499;SDS011;24269;51.894;4.622;2022-09-09T02:33:24;11.75;;;6.97;;
38499;SDS011;24269;51.894;4.622;2022-09-09T02:35:52;13.73;;;7.15;;
38499;SDS011;24269;51.894;4.622;2022-09-09T02:38:21;14.30;;;6.47;;
38499;SDS011;24269;51.894;4.622;2022-09-09T02:40:51;16.85;;;5.90;;
38499;SDS011;24269;51.894;4.622;2022-09-09T02:43:17;12.32;;;6.05;;
38499;SDS011;24269;51.894;4.622;2022-09-09T02:45:56;13.63;;;5.57;;
38499;SDS011;24269;51.894;4.622;2022-09-09T02:48:36;10.55;;;5.57;;
38499;SDS011;24269;51.894;4.622;2022-09-09T02:51:34;12.32;;;5.18;;
38499;SDS011;24269;51.894;4.622;2022-09-09T02:54:09;9.52;;;4.88;;
38499;SDS011;24269;51.894;4.622;2022-09-09T02:56:44;10.52;;;5.03;;
38499;SDS011;24269;51.894;4.622;2022-09-09T02:59:15;10.73;;;4.60;;
38499;SDS011;24269;51.894;4.622;2022-09-09T03:01:41;9.55;;;4.35;;
38499;SDS011;24269;51.894;4.622;2022-09-09T03:04:07;11.02;;;4.93;;
38499;SDS011;24269;51.894;4.622;2022-09-09T03:06:32;12.30;;;5.20;;
38499;SDS011;24269;51.894;4.622;2022-09-09T03:08:58;10.38;;;4.95;;
38499;SDS011;24269;51.894;4.622;2022-09-09T03:11:25;10.20;;;4.20;;
38499;SDS011;24269;51.894;4.622;2022-09-09T03:13:52;12.13;;;5.15;;
38499;SDS011;24269;51.894;4.622;2022-09-09T03:16:19;9.90;;;4.85;;
38499;SDS011;24269;51.894;4.622;2022-09-09T03:18:46;10.77;;;5.05;;
38499;SDS011;24269;51.894;4.622;2022-09-09T03:21:11;10.82;;;5.57;;
38499;SDS011;24269;51.894;4.622;2022-09-09T03:23:37;11.70;;;4.97;;
38499;SDS011;24269;51.894;4.622;2022-09-09T03:26:03;10.30;;;4.57;;
38499;SDS011;24269;51.894;4.622;2022-09-09T03:28:28;9.90;;;4.90;;
38499;SDS011;24269;51.894;4.622;2022-09-09T03:31:05;10.75;;;4.88;;
38499;SDS011;24269;51.894;4.622;2022-09-09T03:33:31;9.07;;;4.63;;
38499;SDS011;24269;51.894;4.622;2022-09-09T03:35:57;10.43;;;4.60;;
38499;SDS011;24269;51.894;4.622;2022-09-09T03:38:23;8.65;;;4.03;;
38499;SDS011;24269;51.894;4.622;2022-09-09T03:40:53;10.10;;;3.72;;
38499;SDS011;24269;51.894;4.622;2022-09-09T03:43:22;10.50;;;4.05;;
38499;SDS011;24269;51.894;4.622;2022-09-09T03:45:49;10.02;;;3.88;;
38499;SDS011;24269;51.894;4.622;2022-09-09T03:48:15;11.88;;;4.07;;
38499;SDS011;24269;51.894;4.622;2022-09-09T03:50:45;9.90;;;3.72;;
38499;SDS011;24269;51.894;4.622;2022-09-09T03:53:16;8.50;;;3.83;;
38499;SDS011;24269;51.894;4.622;2022-09-09T03:55:46;8.60;;;3.83;;
38499;SDS011;24269;51.894;4.622;2022-09-09T03:58:13;10.20;;;3.78;;
38499;SDS011;24269;51.894;4.622;2022-09-09T04:00:40;10.02;;;4.00;;
38499;SDS011;24269;51.894;4.622;2022-09-09T04:03:10;10.23;;;3.63;;
38499;SDS011;24269;51.894;4.622;2022-09-09T04:05:36;9.65;;;3.83;;
38499;SDS011;24269;51.894;4.622;2022-09-09T04:08:05;10.10;;;3.92;;
38499;SDS011;24269;51.894;4.622;2022-09-09T04:10:32;8.18;;;3.83;;
38499;SDS011;24269;51.894;4.622;2022-09-09T04:12:58;8.27;;;3.63;;
38499;SDS011;24269;51.894;4.622;2022-09-09T04:15:24;11.13;;;4.60;;
38499;SDS011;24269;51.894;4.622;2022-09-09T04:17:50;9.25;;;3.97;;
38499;SDS011;24269;51.894;4.622;2022-09-09T04:20:16;9.50;;;3.78;;
38499;SDS011;24269;51.894;4.622;2022-09-09T04:22:41;9.68;;;3.78;;
38499;SDS011;24269;51.894;4.622;2022-09-09T04:25:07;10.05;;;3.92;;
38499;SDS011;24269;51.894;4.622;2022-09-09T04:27:33;12.05;;;4.10;;
38499;SDS011;24269;51.894;4.622;2022-09-09T04:29:58;10.90;;;4.35;;
38499;SDS011;24269;51.894;4.622;2022-09-09T04:32:24;8.45;;;3.80;;
38499;SDS011;24269;51.894;4.622;2022-09-09T04:34:53;9.35;;;4.18;;
38499;SDS011;24269;51.894;4.622;2022-09-09T04:37:18;11.77;;;4.32;;
38499;SDS011;24269;51.894;4.622;2022-09-09T04:39:44;9.48;;;4.00;;
38499;SDS011;24269;51.894;4.622;2022-09-09T04:42:10;11.60;;;4.20;;
38499;SDS011;24269;51.894;4.622;2022-09-09T04:44:37;9.63;;;3.83;;
38499;SDS011;24269;51.894;4.622;2022-09-09T04:47:04;11.95;;;4.20;;
38499;SDS011;24269;51.894;4.622;2022-09-09T04:49:30;11.88;;;3.83;;
38499;SDS011;24269;51.894;4.622;2022-09-09T04:51:56;10.85;;;3.60;;
38499;SDS011;24269;51.894;4.622;2022-09-09T04:54:22;13.30;;;4.03;;
38499;SDS011;24269;51.894;4.622;2022-09-09T04:56:49;10.68;;;4.15;;
38499;SDS011;24269;51.894;4.622;2022-09-09T04:59:15;11.00;;;3.80;;
38499;SDS011;24269;51.894;4.622;2022-09-09T05:01:41;10.05;;;3.60;;
38499;SDS011;24269;51.894;4.622;2022-09-09T05:04:07;13.10;;;3.72;;
38499;SDS011;24269;51.894;4.622;2022-09-09T05:06:33;9.35;;;3.50;;
38499;SDS011;24269;51.894;4.622;2022-09-09T05:09:01;9.80;;;3.65;;
38499;SDS011;24269;51.894;4.622;2022-09-09T05:11:27;9.85;;;3.83;;
38499;SDS011;24269;51.894;4.622;2022-09-09T05:13:55;11.15;;;3.80;;
38499;SDS011;24269;51.894;4.622;2022-09-09T05:16:23;12.80;;;3.88;;
38499;SDS011;24269;51.894;4.622;2022-09-09T05:18:49;13.07;;;3.90;;
38499;SDS011;24269;51.894;4.622;2022-09-09T05:21:16;8.82;;;3.45;;
38499;SDS011;24269;51.894;4.622;2022-09-09T05:23:44;12.57;;;3.78;;
38499;SDS011;24269;51.894;4.622;2022-09-09T05:26:14;11.93;;;3.58;;
38499;SDS011;24269;51.894;4.622;2022-09-09T05:28:42;13.55;;;3.42;;
38499;SDS011;24269;51.894;4.622;2022-09-09T05:31:08;11.90;;;3.58;;
38499;SDS011;24269;51.894;4.622;2022-09-09T05:33:36;11.10;;;3.88;;
38499;SDS011;24269;51.894;4.622;2022-09-09T05:36:05;11.23;;;3.50;;
38499;SDS011;24269;51.894;4.622;2022-09-09T05:38:33;13.88;;;4.00;;
38499;SDS011;24269;51.894;4.622;2022-09-09T05:41:00;12.20;;;3.60;;
38499;SDS011;24269;51.894;4.622;2022-09-09T05:43:27;15.05;;;4.82;;
38499;SDS011;24269;51.894;4.622;2022-09-09T05:46:02;12.30;;;4.10;;
38499;SDS011;24269;51.894;4.622;2022-09-09T05:48:29;14.95;;;3.92;;
38499;SDS011;24269;51.894;4.622;2022-09-09T05:50:56;15.30;;;4.30;;
38499;SDS011;24269;51.894;4.622;2022-09-09T05:53:23;13.30;;;4.10;;
38499;SDS011;24269;51.894;4.622;2022-09-09T05:55:48;11.35;;;3.35;;
38499;SDS011;24269;51.894;4.622;2022-09-09T05:58:15;10.85;;;3.28;;
38499;SDS011;24269;51.894;4.622;2022-09-09T06:00:41;10.30;;;3.40;;
38499;SDS011;24269;51.894;4.622;2022-09-09T06:03:09;11.75;;;2.75;;
38499;SDS011;24269;51.894;4.622;2022-09-09T06:05:36;12.52;;;3.50;;
38499;SDS011;24269;51.894;4.622;2022-09-09T06:08:02;13.35;;;3.42;;
38499;SDS011;24269;51.894;4.622;2022-09-09T06:10:28;10.77;;;3.00;;
38499;SDS011;24269;51.894;4.622;2022-09-09T06:12:53;12.82;;;3.13;;
38499;SDS011;24269;51.894;4.622;2022-09-09T06:15:19;11.02;;;3.20;;
38499;SDS011;24269;51.894;4.622;2022-09-09T06:17:45;12.15;;;3.70;;
38499;SDS011;24269;51.894;4.622;2022-09-09T06:20:11;12.18;;;3.45;;
38499;SDS011;24269;51.894;4.622;2022-09-09T06:22:39;13.75;;;3.33;;
38499;SDS011;24269;51.894;4.622;2022-09-09T06:25:06;12.82;;;3.00;;
38499;SDS011;24269;51.894;4.622;2022-09-09T06:27:32;10.40;;;3.58;;
38499;SDS011;24269;51.894;4.622;2022-09-09T06:29:58;13.57;;;3.70;;
38499;SDS011;24269;51.894;4.622;2022-09-09T06:32:24;15.25;;;4.03;;
38499;SDS011;24269;51.894;4.622;2022-09-09T06:34:51;9.98;;;3.90;;
38499;SDS011;24269;51.894;4.622;2022-09-09T06:37:17;12.05;;;3.67;;
38499;SDS011;24269;51.894;4.622;2022-09-09T06:39:42;14.57;;;4.15;;
38499;SDS011;24269;51.894;4.622;2022-09-09T06:42:08;14.77;;;4.28;;
38499;SDS011;24269;51.894;4.622;2022-09-09T06:44:34;14.27;;;4.40;;
38499;SDS011;24269;51.894;4.622;2022-09-09T06:47:00;16.83;;;4.18;;
38499;SDS011;24269;51.894;4.622;2022-09-09T06:49:25;12.52;;;4.30;;
38499;SDS011;24269;51.894;4.622;2022-09-09T06:51:51;13.95;;;4.50;;
38499;SDS011;24269;51.894;4.622;2022-09-09T06:54:17;9.18;;;4.47;;
38499;SDS011;24269;51.894;4.622;2022-09-09T06:56:43;12.60;;;4.18;;
38499;SDS011;24269;51.894;4.622;2022-09-09T06:59:10;12.77;;;5.00;;
38499;SDS011;24269;51.894;4.622;2022-09-09T07:01:40;14.30;;;4.45;;
38499;SDS011;24269;51.894;4.622;2022-09-09T07:04:08;11.65;;;4.72;;
38499;SDS011;24269;51.894;4.622;2022-09-09T07:06:42;10.80;;;5.15;;
38499;SDS011;24269;51.894;4.622;2022-09-09T07:09:11;11.57;;;4.80;;
38499;SDS011;24269;51.894;4.622;2022-09-09T07:11:39;16.23;;;6.20;;
38499;SDS011;24269;51.894;4.622;2022-09-09T07:14:06;10.65;;;4.80;;
38499;SDS011;24269;51.894;4.622;2022-09-09T07:16:32;18.05;;;5.78;;
38499;SDS011;24269;51.894;4.622;2022-09-09T07:18:58;13.77;;;5.63;;
38499;SDS011;24269;51.894;4.622;2022-09-09T07:21:25;15.43;;;5.90;;
38499;SDS011;24269;51.894;4.622;2022-09-09T07:23:52;14.75;;;6.20;;
38499;SDS011;24269;51.894;4.622;2022-09-09T07:26:19;15.25;;;5.47;;
38499;SDS011;24269;51.894;4.622;2022-09-09T07:28:46;11.50;;;5.82;;
38499;SDS011;24269;51.894;4.622;2022-09-09T07:31:13;17.20;;;5.30;;
38499;SDS011;24269;51.894;4.622;2022-09-09T07:33:41;13.32;;;5.00;;
38499;SDS011;24269;51.894;4.622;2022-09-09T07:36:09;14.27;;;5.28;;
38499;SDS011;24269;51.894;4.622;2022-09-09T07:38:41;17.50;;;5.90;;
38499;SDS011;24269;51.894;4.622;2022-09-09T07:41:12;10.30;;;4.93;;
38499;SDS011;24269;51.894;4.622;2022-09-09T07:43:40;15.73;;;5.65;;
38499;SDS011;24269;51.894;4.622;2022-09-09T07:46:10;13.43;;;5.82;;
38499;SDS011;24269;51.894;4.622;2022-09-09T07:48:37;14.70;;;6.25;;
38499;SDS011;24269;51.894;4.622;2022-09-09T07:51:07;12.65;;;5.95;;
38499;SDS011;24269;51.894;4.622;2022-09-09T07:53:36;14.70;;;5.45;;
38499;SDS011;24269;51.894;4.622;2022-09-09T07:56:06;15.75;;;5.85;;
38499;SDS011;24269;51.894;4.622;2022-09-09T07:58:34;16.67;;;6.13;;
38499;SDS011;24269;51.894;4.622;2022-09-09T08:01:05;13.52;;;5.15;;
38499;SDS011;24269;51.894;4.622;2022-09-09T08:03:35;17.75;;;5.60;;
38499;SDS011;24269;51.894;4.622;2022-09-09T08:06:02;13.95;;;5.60;;
38499;SDS011;24269;51.894;4.622;2022-09-09T08:08:29;14.13;;;5.43;;
38499;SDS011;24269;51.894;4.622;2022-09-09T08:11:02;14.77;;;5.63;;
38499;SDS011;24269;51.894;4.622;2022-09-09T08:13:30;14.63;;;5.20;;
38499;SDS011;24269;51.894;4.622;2022-09-09T08:16:03;13.52;;;5.18;;
38499;SDS011;24269;51.894;4.622;2022-09-09T08:18:40;12.13;;;4.32;;
38499;SDS011;24269;51.894;4.622;2022-09-09T08:23:31;13.15;;;4.53;;
38499;SDS011;24269;51.894;4.622;2022-09-09T08:26:03;11.50;;;4.90;;
38499;SDS011;24269;51.894;4.622;2022-09-09T08:28:29;13.40;;;4.00;;
38499;SDS011;24269;51.894;4.622;2022-09-09T08:30:56;10.52;;;4.25;;
38499;SDS011;24269;51.894;4.622;2022-09-09T08:33:29;12.50;;;3.97;;
38499;SDS011;24269;51.894;4.622;2022-09-09T08:35:55;14.48;;;4.55;;
38499;SDS011;24269;51.894;4.622;2022-09-09T08:38:21;10.75;;;3.83;;
38499;SDS011;24269;51.894;4.622;2022-09-09T08:40:46;16.15;;;4.47;;
38499;SDS011;24269;51.894;4.622;2022-09-09T08:43:14;10.25;;;4.28;;
38499;SDS011;24269;51.894;4.622;2022-09-09T08:45:49;11.40;;;4.15;;
38499;SDS011;24269;51.894;4.622;2022-09-09T08:48:46;12.65;;;4.13;;
38499;SDS011;24269;51.894;4.622;2022-09-09T08:51:46;10.37;;;4.00;;
38499;SDS011;24269;51.894;4.622;2022-09-09T08:54:14;11.80;;;4.15;;
38499;SDS011;24269;51.894;4.622;2022-09-09T08:56:40;12.18;;;4.47;;
38499;SDS011;24269;51.894;4.622;2022-09-09T08:59:07;13.60;;;4.45;;
38499;SDS011;24269;51.894;4.622;2022-09-09T09:02:38;12.35;;;4.43;;
38499;SDS011;24269;51.894;4.622;2022-09-09T09:04:48;13.65;;;4.38;;
38499;SDS011;24269;51.894;4.622;2022-09-09T09:10:15;10.82;;;4.18;;
38499;SDS011;24269;51.894;4.622;2022-09-09T09:12:55;14.55;;;5.00;;
38499;SDS011;24269;51.894;4.622;2022-09-09T09:15:25;14.02;;;4.03;;
38499;SDS011;24269;51.894;4.622;2022-09-09T09:17:55;14.77;;;4.45;;
38499;SDS011;24269;51.894;4.622;2022-09-09T09:20:25;13.88;;;3.63;;
38499;SDS011;24269;51.894;4.622;2022-09-09T09:23:00;10.55;;;3.60;;
38499;SDS011;24269;51.894;4.622;2022-09-09T09:25:32;14.00;;;3.78;;
38499;SDS011;24269;51.894;4.622;2022-09-09T09:30:54;13.32;;;4.30;;
38499;SDS011;24269;51.894;4.622;2022-09-09T09:33:28;11.93;;;3.95;;
38499;SDS011;24269;51.894;4.622;2022-09-09T09:36:02;10.50;;;3.33;;
38499;SDS011;24269;51.894;4.622;2022-09-09T09:38:28;11.43;;;3.85;;
38499;SDS011;24269;51.894;4.622;2022-09-09T09:40:55;11.43;;;3.83;;
38499;SDS011;24269;51.894;4.622;2022-09-09T09:43:29;14.88;;;3.40;;
38499;SDS011;24269;51.894;4.622;2022-09-09T09:45:56;15.45;;;3.70;;
38499;SDS011;24269;51.894;4.622;2022-09-09T09:48:23;11.45;;;3.35;;
38499;SDS011;24269;51.894;4.622;2022-09-09T09:50:51;13.90;;;3.55;;
38499;SDS011;24269;51.894;4.622;2022-09-09T09:53:35;11.70;;;3.10;;
38499;SDS011;24269;51.894;4.622;2022-09-09T09:56:06;10.80;;;3.15;;
38499;SDS011;24269;51.894;4.622;2022-09-09T10:03:33;15.25;;;2.92;;
38499;SDS011;24269;51.894;4.622;2022-09-09T10:06:06;11.20;;;2.83;;
38499;SDS011;24269;51.894;4.622;2022-09-09T10:08:34;10.82;;;2.60;;
38499;SDS011;24269;51.894;4.622;2022-09-09T10:13:47;11.30;;;2.90;;
38499;SDS011;24269;51.894;4.622;2022-09-09T10:26:45;6.63;;;2.60;;
38499;SDS011;24269;51.894;4.622;2022-09-09T10:29:29;9.10;;;2.63;;
38499;SDS011;24269;51.894;4.622;2022-09-09T10:42:43;10.10;;;3.28;;
38499;SDS011;24269;51.894;4.622;2022-09-09T10:45:18;12.63;;;3.80;;
38499;SDS011;24269;51.894;4.622;2022-09-09T10:51:06;14.80;;;4.18;;
38499;SDS011;24269;51.894;4.622;2022-09-09T10:53:40;10.05;;;3.22;;
38499;SDS011;24269;51.894;4.622;2022-09-09T10:56:29;7.00;;;3.28;;
38499;SDS011;24269;51.894;4.622;2022-09-09T10:58:58;9.10;;;3.22;;
38499;SDS011;24269;51.894;4.622;2022-09-09T11:01:31;11.27;;;3.60;;
38499;SDS011;24269;51.894;4.622;2022-09-09T11:04:16;10.38;;;3.75;;
38499;SDS011;24269;51.894;4.622;2022-09-09T11:06:52;9.07;;;3.38;;
38499;SDS011;24269;51.894;4.622;2022-09-09T11:09:24;11.32;;;3.28;;
38499;SDS011;24269;51.894;4.622;2022-09-09T11:11:57;9.55;;;3.05;;
38499;SDS011;24269;51.894;4.622;2022-09-09T11:17:15;9.65;;;3.33;;
38499;SDS011;24269;51.894;4.622;2022-09-09T11:19:45;12.75;;;3.60;;
38499;SDS011;24269;51.894;4.622;2022-09-09T11:27:58;8.10;;;3.35;;
38499;SDS011;24269;51.894;4.622;2022-09-09T11:41:48;12.05;;;3.45;;
38499;SDS011;24269;51.894;4.622;2022-09-09T11:44:24;11.20;;;3.70;;
38499;SDS011;24269;51.894;4.622;2022-09-09T11:46:53;8.30;;;3.97;;
38499;SDS011;24269;51.894;4.622;2022-09-09T11:49:26;9.57;;;4.20;;
38499;SDS011;24269;51.894;4.622;2022-09-09T11:51:53;12.20;;;4.03;;
38499;SDS011;24269;51.894;4.622;2022-09-09T11:57:00;9.43;;;3.70;;
38499;SDS011;24269;51.894;4.622;2022-09-09T11:59:30;7.07;;;3.33;;
38499;SDS011;24269;51.894;4.622;2022-09-09T12:01:57;11.85;;;3.60;;
38499;SDS011;24269;51.894;4.622;2022-09-09T12:04:30;7.78;;;3.00;;
38499;SDS011;24269;51.894;4.622;2022-09-09T12:07:21;7.65;;;3.15;;
38499;SDS011;24269;51.894;4.622;2022-09-09T12:09:56;10.30;;;3.60;;
38499;SDS011;24269;51.894;4.622;2022-09-09T12:17:46;12.88;;;4.57;;
38499;SDS011;24269;51.894;4.622;2022-09-09T12:25:30;11.43;;;4.90;;
38499;SDS011;24269;51.894;4.622;2022-09-09T12:28:20;11.55;;;4.32;;
38499;SDS011;24269;51.894;4.622;2022-09-09T12:30:56;13.35;;;4.10;;
38499;SDS011;24269;51.894;4.622;2022-09-09T12:33:38;9.77;;;3.85;;
38499;SDS011;24269;51.894;4.622;2022-09-09T12:36:12;9.50;;;3.53;;
38499;SDS011;24269;51.894;4.622;2022-09-09T12:38:44;11.77;;;3.97;;
38499;SDS011;24269;51.894;4.622;2022-09-09T12:41:23;12.18;;;3.95;;
38499;SDS011;24269;51.894;4.622;2022-09-09T12:43:50;12.27;;;4.45;;
38499;SDS011;24269;51.894;4.622;2022-09-09T12:46:24;8.52;;;3.97;;
38499;SDS011;24269;51.894;4.622;2022-09-09T12:48:53;15.65;;;5.15;;
38499;SDS011;24269;51.894;4.622;2022-09-09T12:51:29;14.02;;;5.18;;
38499;SDS011;24269;51.894;4.622;2022-09-09T12:53:57;14.55;;;5.72;;
38499;SDS011;24269;51.894;4.622;2022-09-09T12:56:25;14.50;;;5.53;;
38499;SDS011;24269;51.894;4.622;2022-09-09T12:58:54;12.82;;;5.63;;
38499;SDS011;24269;51.894;4.622;2022-09-09T13:01:28;14.38;;;6.50;;
38499;SDS011;24269;51.894;4.622;2022-09-09T13:03:58;18.13;;;6.07;;
38499;SDS011;24269;51.894;4.622;2022-09-09T13:06:25;15.13;;;6.13;;
38499;SDS011;24269;51.894;4.622;2022-09-09T13:08:53;13.43;;;6.93;;
38499;SDS011;24269;51.894;4.622;2022-09-09T13:11:42;12.10;;;6.40;;
38499;SDS011;24269;51.894;4.622;2022-09-09T13:14:15;13.13;;;6.32;;
38499;SDS011;24269;51.894;4.622;2022-09-09T13:16:54;12.48;;;5.88;;
38499;SDS011;24269;51.894;4.622;2022-09-09T13:19:22;15.93;;;6.82;;
38499;SDS011;24269;51.894;4.622;2022-09-09T13:21:50;11.98;;;6.30;;
38499;SDS011;24269;51.894;4.622;2022-09-09T13:24:25;12.93;;;6.97;;
38499;SDS011;24269;51.894;4.622;2022-09-09T13:27:01;9.73;;;6.18;;
38499;SDS011;24269;51.894;4.622;2022-09-09T13:29:28;9.88;;;6.32;;
38499;SDS011;24269;51.894;4.622;2022-09-09T13:32:05;6.85;;;3.80;;
38499;SDS011;24269;51.894;4.622;2022-09-09T13:34:40;8.43;;;3.58;;
38499;SDS011;24269;51.894;4.622;2022-09-09T13:37:19;9.02;;;3.25;;
38499;SDS011;24269;51.894;4.622;2022-09-09T13:39:55;9.00;;;2.97;;
38499;SDS011;24269;51.894;4.622;2022-09-09T13:42:21;8.70;;;2.50;;
38499;SDS011;24269;51.894;4.622;2022-09-09T13:44:50;7.20;;;2.38;;
38499;SDS011;24269;51.894;4.622;2022-09-09T13:47:20;6.65;;;2.10;;
38499;SDS011;24269;51.894;4.622;2022-09-09T13:49:51;6.32;;;2.13;;
38499;SDS011;24269;51.894;4.622;2022-09-09T13:52:18;5.88;;;1.60;;
38499;SDS011;24269;51.894;4.622;2022-09-09T13:54:50;6.35;;;1.70;;
38499;SDS011;24269;51.894;4.622;2022-09-09T13:57:20;7.07;;;2.13;;
38499;SDS011;24269;51.894;4.622;2022-09-09T13:59:50;7.55;;;1.70;;
38499;SDS011;24269;51.894;4.622;2022-09-09T14:02:17;6.63;;;1.90;;
38499;SDS011;24269;51.894;4.622;2022-09-09T14:04:43;11.77;;;2.28;;
38499;SDS011;24269;51.894;4.622;2022-09-09T14:07:11;6.63;;;2.00;;
38499;SDS011;24269;51.894;4.622;2022-09-09T14:09:38;7.47;;;2.13;;
38499;SDS011;24269;51.894;4.622;2022-09-09T14:12:04;7.32;;;2.40;;
38499;SDS011;24269;51.894;4.622;2022-09-09T14:14:30;8.18;;;2.60;;
38499;SDS011;24269;51.894;4.622;2022-09-09T14:16:56;7.40;;;2.63;;
38499;SDS011;24269;51.894;4.622;2022-09-09T14:19:21;7.60;;;2.05;;
38499;SDS011;24269;51.894;4.622;2022-09-09T14:21:47;7.10;;;2.53;;
38499;SDS011;24269;51.894;4.622;2022-09-09T14:24:13;6.70;;;2.30;;
38499;SDS011;24269;51.894;4.622;2022-09-09T14:26:39;7.82;;;2.20;;
38499;SDS011;24269;51.894;4.622;2022-09-09T14:29:05;5.45;;;1.98;;
38499;SDS011;24269;51.894;4.622;2022-09-09T14:31:31;8.18;;;1.83;;
38499;SDS011;24269;51.894;4.622;2022-09-09T14:33:57;6.65;;;2.00;;
38499;SDS011;24269;51.894;4.622;2022-09-09T14:36:24;3.92;;;1.50;;
38499;SDS011;24269;51.894;4.622;2022-09-09T14:38:49;4.82;;;1.73;;
38499;SDS011;24269;51.894;4.622;2022-09-09T14:41:16;6.72;;;1.65;;
38499;SDS011;24269;51.894;4.622;2022-09-09T14:43:43;5.93;;;1.63;;
38499;SDS011;24269;51.894;4.622;2022-09-09T14:46:13;9.68;;;1.30;;
38499;SDS011;24269;51.894;4.622;2022-09-09T14:48:41;6.30;;;1.38;;
38499;SDS011;24269;51.894;4.622;2022-09-09T14:51:10;6.15;;;1.60;;
38499;SDS011;24269;51.894;4.622;2022-09-09T14:53:39;4.78;;;1.50;;
38499;SDS011;24269;51.894;4.622;2022-09-09T14:58:38;5.22;;;1.33;;
38499;SDS011;24269;51.894;4.622;2022-09-09T15:01:13;5.93;;;1.40;;
38499;SDS011;24269;51.894;4.622;2022-09-09T15:03:41;6.35;;;1.60;;
38499;SDS011;24269;51.894;4.622;2022-09-09T15:06:13;7.03;;;1.60;;
38499;SDS011;24269;51.894;4.622;2022-09-09T15:08:43;5.65;;;1.13;;
38499;SDS011;24269;51.894;4.622;2022-09-09T15:11:10;7.22;;;1.60;;
38499;SDS011;24269;51.894;4.622;2022-09-09T15:13:37;6.00;;;1.50;;
38499;SDS011;24269;51.894;4.622;2022-09-09T15:16:07;6.88;;;1.60;;
38499;SDS011;24269;51.894;4.622;2022-09-09T15:18:41;8.40;;;1.98;;
38499;SDS011;24269;51.894;4.622;2022-09-09T15:21:15;10.55;;;1.60;;
38499;SDS011;24269;51.894;4.622;2022-09-09T15:23:43;6.47;;;1.92;;
38499;SDS011;24269;51.894;4.622;2022-09-09T15:26:09;7.55;;;2.20;;
38499;SDS011;24269;51.894;4.622;2022-09-09T15:28:36;11.05;;;2.70;;
38499;SDS011;24269;51.894;4.622;2022-09-09T15:31:13;8.52;;;2.45;;
38499;SDS011;24269;51.894;4.622;2022-09-09T15:33:46;13.95;;;2.65;;
38499;SDS011;24269;51.894;4.622;2022-09-09T15:36:20;10.70;;;3.03;;
38499;SDS011;24269;51.894;4.622;2022-09-09T15:38:50;8.07;;;3.05;;
38499;SDS011;24269;51.894;4.622;2022-09-09T15:41:18;9.73;;;3.55;;
38499;SDS011;24269;51.894;4.622;2022-09-09T15:43:46;11.32;;;3.88;;
38499;SDS011;24269;51.894;4.622;2022-09-09T15:48:42;10.10;;;3.45;;
38499;SDS011;24269;51.894;4.622;2022-09-09T15:51:11;9.73;;;3.75;;
38499;SDS011;24269;51.894;4.622;2022-09-09T15:53:37;9.85;;;3.30;;
38499;SDS011;24269;51.894;4.622;2022-09-09T15:56:04;9.38;;;2.90;;
38499;SDS011;24269;51.894;4.622;2022-09-09T15:58:31;7.38;;;2.28;;
38499;SDS011;24269;51.894;4.622;2022-09-09T16:01:01;8.50;;;2.83;;
38499;SDS011;24269;51.894;4.622;2022-09-09T16:03:34;8.50;;;3.03;;
38499;SDS011;24269;51.894;4.622;2022-09-09T16:06:01;7.70;;;2.70;;
38499;SDS011;24269;51.894;4.622;2022-09-09T16:08:34;7.35;;;2.70;;
38499;SDS011;24269;51.894;4.622;2022-09-09T16:11:08;7.68;;;2.90;;
38499;SDS011;24269;51.894;4.622;2022-09-09T16:13:36;9.15;;;2.35;;
38499;SDS011;24269;51.894;4.622;2022-09-09T16:16:02;8.73;;;2.50;;
38499;SDS011;24269;51.894;4.622;2022-09-09T16:18:36;5.13;;;2.15;;
38499;SDS011;24269;51.894;4.622;2022-09-09T16:21:03;6.97;;;2.65;;
38499;SDS011;24269;51.894;4.622;2022-09-09T16:23:30;8.50;;;2.85;;
38499;SDS011;24269;51.894;4.622;2022-09-09T16:25:57;9.23;;;2.47;;
38499;SDS011;24269;51.894;4.622;2022-09-09T16:28:23;9.15;;;2.63;;
38499;SDS011;24269;51.894;4.622;2022-09-09T16:30:48;8.68;;;2.83;;
38499;SDS011;24269;51.894;4.622;2022-09-09T16:33:14;11.00;;;2.90;;
38499;SDS011;24269;51.894;4.622;2022-09-09T16:35:41;11.95;;;3.10;;
38499;SDS011;24269;51.894;4.622;2022-09-09T16:38:06;9.48;;;2.83;;
38499;SDS011;24269;51.894;4.622;2022-09-09T16:40:35;7.38;;;2.65;;
38499;SDS011;24269;51.894;4.622;2022-09-09T16:43:06;11.27;;;2.95;;
38499;SDS011;24269;51.894;4.622;2022-09-09T16:45:34;10.57;;;2.92;;
38499;SDS011;24269;51.894;4.622;2022-09-09T16:48:06;8.63;;;2.83;;
38499;SDS011;24269;51.894;4.622;2022-09-09T16:50:31;9.48;;;2.90;;
38499;SDS011;24269;51.894;4.622;2022-09-09T16:52:57;7.88;;;3.28;;
38499;SDS011;24269;51.894;4.622;2022-09-09T16:55:22;12.80;;;3.20;;
38499;SDS011;24269;51.894;4.622;2022-09-09T16:57:49;8.20;;;2.88;;
38499;SDS011;24269;51.894;4.622;2022-09-09T17:00:14;8.25;;;3.10;;